sensor_id;sensor_type;location;lat;lon;timestamp;P1;P2;P0
55449;PMS5003;41318;58.724;50.180;2023-02-26T00:02:08;46.80;45.00;27.00
55449;PMS5003;41318;58.724;50.180;2023-02-26T00:04:40;71.00;56.20;33.60
55449;PMS5003;41318;58.724;50.180;2023-02-26T00:07:11;36.40;33.20;27.40
55449;PMS5003;41318;58.724;50.180;2023-02-26T00:09:42;41.00;34.80;19.00
55449;PMS5003;41318;58.724;50.180;2023-02-26T00:12:13;22.40;20.80;15.60
55449;PMS5003;41318;58.724;50.180;2023-02-26T00:14:45;35.20;33.00;18.80
55449;PMS5003;41318;58.724;50.180;2023-02-26T00:17:25;40.20;38.60;24.80
55449;PMS5003;41318;58.724;50.180;2023-02-26T00:20:17;31.00;30.60;24.00
55449;PMS5003;41318;58.724;50.180;2023-02-26T00:22:48;49.80;43.80;25.00
55449;PMS5003;41318;58.724;50.180;2023-02-26T00:25:20;44.80;39.40;26.20
55449;PMS5003;41318;58.724;50.180;2023-02-26T00:27:51;36.25;33.25;23.50
55449;PMS5003;41318;58.724;50.180;2023-02-26T00:30:22;51.00;46.80;25.40
55449;PMS5003;41318;58.724;50.180;2023-02-26T00:32:53;45.00;40.00;20.00
55449;PMS5003;41318;58.724;50.180;2023-02-26T00:35:25;54.80;46.60;21.20
55449;PMS5003;41318;58.724;50.180;2023-02-26T00:38:00;59.20;47.40;27.20
55449;PMS5003;41318;58.724;50.180;2023-02-26T00:40:50;69.00;54.00;31.00
55449;PMS5003;41318;58.724;50.180;2023-02-26T00:43:42;69.40;52.00;27.00
55449;PMS5003;41318;58.724;50.180;2023-02-26T00:52:12;40.60;38.80;24.00
55449;PMS5003;41318;58.724;50.180;2023-02-26T00:55:02;45.40;42.00;23.60
55449;PMS5003;41318;58.724;50.180;2023-02-26T00:57:33;38.80;34.40;23.00
55449;PMS5003;41318;58.724;50.180;2023-02-26T01:00:04;45.60;41.80;23.80
55449;PMS5003;41318;58.724;50.180;2023-02-26T01:02:37;39.40;38.60;22.40
55449;PMS5003;41318;58.724;50.180;2023-02-26T01:05:27;38.80;36.00;22.40
55449;PMS5003;41318;58.724;50.180;2023-02-26T01:10:48;47.40;43.60;27.00
55449;PMS5003;41318;58.724;50.180;2023-02-26T01:13:19;55.60;48.20;30.20
55449;PMS5003;41318;58.724;50.180;2023-02-26T01:15:54;69.20;57.00;31.80
55449;PMS5003;41318;58.724;50.180;2023-02-26T01:18:31;62.20;52.00;29.60
55449;PMS5003;41318;58.724;50.180;2023-02-26T01:21:09;49.80;44.60;28.00
55449;PMS5003;41318;58.724;50.180;2023-02-26T01:23:44;34.20;33.20;19.60
55449;PMS5003;41318;58.724;50.180;2023-02-26T01:26:18;37.20;35.80;20.60
55449;PMS5003;41318;58.724;50.180;2023-02-26T01:28:51;44.60;43.60;24.80
55449;PMS5003;41318;58.724;50.180;2023-02-26T01:33:55;27.40;25.20;18.60
55449;PMS5003;41318;58.724;50.180;2023-02-26T01:36:51;44.60;39.20;22.20
55449;PMS5003;41318;58.724;50.180;2023-02-26T01:49:44;41.80;41.00;23.80
55449;PMS5003;41318;58.724;50.180;2023-02-26T01:55:01;35.80;31.60;19.40
55449;PMS5003;41318;58.724;50.180;2023-02-26T01:57:34;33.40;31.80;20.20
55449;PMS5003;41318;58.724;50.180;2023-02-26T02:00:06;39.20;37.80;20.40
55449;PMS5003;41318;58.724;50.180;2023-02-26T02:02:56;35.40;31.00;15.00
55449;PMS5003;41318;58.724;50.180;2023-02-26T02:05:30;45.20;45.00;29.00
55449;PMS5003;41318;58.724;50.180;2023-02-26T02:08:02;41.80;38.20;22.40
55449;PMS5003;41318;58.724;50.180;2023-02-26T02:10:33;38.80;36.80;17.80
55449;PMS5003;41318;58.724;50.180;2023-02-26T02:13:06;38.40;38.40;25.80
55449;PMS5003;41318;58.724;50.180;2023-02-26T02:35:45;42.20;39.20;23.20
55449;PMS5003;41318;58.724;50.180;2023-02-26T02:38:16;51.00;47.00;29.40
55449;PMS5003;41318;58.724;50.180;2023-02-26T02:40:50;34.60;34.20;27.00
55449;PMS5003;41318;58.724;50.180;2023-02-26T02:43:24;46.40;45.00;29.80
55449;PMS5003;41318;58.724;50.180;2023-02-26T02:46:03;44.80;39.60;28.00
55449;PMS5003;41318;58.724;50.180;2023-02-26T02:48:36;60.80;52.00;33.00
55449;PMS5003;41318;58.724;50.180;2023-02-26T02:51:10;55.40;48.00;28.00
55449;PMS5003;41318;58.724;50.180;2023-02-26T02:56:43;53.25;48.50;30.25
55449;PMS5003;41318;58.724;50.180;2023-02-26T03:01:53;61.40;51.80;31.00
55449;PMS5003;41318;58.724;50.180;2023-02-26T03:04:46;47.00;44.00;27.00
55449;PMS5003;41318;58.724;50.180;2023-02-26T03:07:17;38.00;37.00;21.80
55449;PMS5003;41318;58.724;50.180;2023-02-26T03:10:07;38.20;34.40;22.80
55449;PMS5003;41318;58.724;50.180;2023-02-26T03:12:38;29.60;28.60;15.60
55449;PMS5003;41318;58.724;50.180;2023-02-26T03:15:11;43.80;41.20;19.00
55449;PMS5003;41318;58.724;50.180;2023-02-26T03:20:34;30.40;30.00;23.60
55449;PMS5003;41318;58.724;50.180;2023-02-26T03:23:13;48.60;42.00;25.60
55449;PMS5003;41318;58.724;50.180;2023-02-26T03:25:52;52.00;47.20;26.00
55449;PMS5003;41318;58.724;50.180;2023-02-26T03:28:37;39.60;38.00;23.80
55449;PMS5003;41318;58.724;50.180;2023-02-26T03:36:53;43.20;41.00;22.20
55449;PMS5003;41318;58.724;50.180;2023-02-26T03:39:33;43.00;41.80;25.00
55449;PMS5003;41318;58.724;50.180;2023-02-26T03:42:17;31.20;30.00;10.00
55449;PMS5003;41318;58.724;50.180;2023-02-26T03:45:08;34.80;32.60;19.00
55449;PMS5003;41318;58.724;50.180;2023-02-26T03:47:42;36.80;33.60;21.80
55449;PMS5003;41318;58.724;50.180;2023-02-26T03:50:17;40.80;39.40;22.00
55449;PMS5003;41318;58.724;50.180;2023-02-26T03:53:09;46.20;45.00;30.00
55449;PMS5003;41318;58.724;50.180;2023-02-26T03:58:51;31.80;30.00;20.00
55449;PMS5003;41318;58.724;50.180;2023-02-26T04:02:23;39.00;31.00;18.00
55449;PMS5003;41318;58.724;50.180;2023-02-26T04:04:40;28.80;25.80;15.80
55449;PMS5003;41318;58.724;50.180;2023-02-26T04:07:13;40.40;30.40;16.00
55449;PMS5003;41318;58.724;50.180;2023-02-26T04:09:46;29.20;27.60;15.80
55449;PMS5003;41318;58.724;50.180;2023-02-26T04:12:22;37.40;37.20;21.20
55449;PMS5003;41318;58.724;50.180;2023-02-26T04:14:54;51.60;46.60;28.20
55449;PMS5003;41318;58.724;50.180;2023-02-26T04:17:26;40.20;37.80;22.80
55449;PMS5003;41318;58.724;50.180;2023-02-26T04:19:57;39.20;38.40;23.80
55449;PMS5003;41318;58.724;50.180;2023-02-26T04:22:46;69.00;56.00;33.80
55449;PMS5003;41318;58.724;50.180;2023-02-26T04:25:20;62.60;51.80;30.80
55449;PMS5003;41318;58.724;50.180;2023-02-26T04:28:10;62.60;49.60;30.40
55449;PMS5003;41318;58.724;50.180;2023-02-26T04:30:41;50.60;46.40;28.60
55449;PMS5003;41318;58.724;50.180;2023-02-26T04:33:14;26.40;24.40;13.40
55449;PMS5003;41318;58.724;50.180;2023-02-26T04:35:46;35.60;31.80;18.60
55449;PMS5003;41318;58.724;50.180;2023-02-26T04:38:17;51.40;46.60;25.80
55449;PMS5003;41318;58.724;50.180;2023-02-26T04:40:49;57.00;47.80;25.40
55449;PMS5003;41318;58.724;50.180;2023-02-26T04:43:38;70.00;54.80;31.60
55449;PMS5003;41318;58.724;50.180;2023-02-26T04:46:25;50.80;47.20;24.80
55449;PMS5003;41318;58.724;50.180;2023-02-26T04:48:59;41.80;40.00;18.60
55449;PMS5003;41318;58.724;50.180;2023-02-26T04:51:30;54.60;45.80;25.80
55449;PMS5003;41318;58.724;50.180;2023-02-26T04:54:01;35.40;32.20;15.20
55449;PMS5003;41318;58.724;50.180;2023-02-26T04:56:50;43.40;37.00;22.00
55449;PMS5003;41318;58.724;50.180;2023-02-26T04:59:39;45.60;42.80;26.00
55449;PMS5003;41318;58.724;50.180;2023-02-26T05:02:11;54.20;47.40;25.60
55449;PMS5003;41318;58.724;50.180;2023-02-26T05:04:45;33.80;32.20;19.80
55449;PMS5003;41318;58.724;50.180;2023-02-26T05:07:17;26.80;26.00;14.20
55449;PMS5003;41318;58.724;50.180;2023-02-26T05:09:48;42.25;37.25;23.00
55449;PMS5003;41318;58.724;50.180;2023-02-26T05:12:18;67.25;55.25;32.75
55449;PMS5003;41318;58.724;50.180;2023-02-26T05:14:50;46.20;43.00;20.60
55449;PMS5003;41318;58.724;50.180;2023-02-26T05:17:21;38.00;36.60;20.20
55449;PMS5003;41318;58.724;50.180;2023-02-26T05:19:51;32.25;30.25;16.75
55449;PMS5003;41318;58.724;50.180;2023-02-26T05:22:23;38.60;33.40;18.00
55449;PMS5003;41318;58.724;50.180;2023-02-26T05:24:54;39.00;38.80;21.00
55449;PMS5003;41318;58.724;50.180;2023-02-26T05:27:25;40.80;39.60;23.60
55449;PMS5003;41318;58.724;50.180;2023-02-26T05:29:58;45.60;41.40;25.80
55449;PMS5003;41318;58.724;50.180;2023-02-26T05:32:29;36.40;34.40;21.00
55449;PMS5003;41318;58.724;50.180;2023-02-26T05:35:00;41.60;40.20;23.00
55449;PMS5003;41318;58.724;50.180;2023-02-26T05:37:31;39.00;37.40;25.40
55449;PMS5003;41318;58.724;50.180;2023-02-26T05:40:03;38.40;37.20;20.80
55449;PMS5003;41318;58.724;50.180;2023-02-26T05:42:35;36.80;35.60;20.60
55449;PMS5003;41318;58.724;50.180;2023-02-26T05:45:07;57.60;45.40;27.40
55449;PMS5003;41318;58.724;50.180;2023-02-26T05:47:56;47.40;44.60;25.20
55449;PMS5003;41318;58.724;50.180;2023-02-26T05:50:28;85.50;67.25;41.25
55449;PMS5003;41318;58.724;50.180;2023-02-26T05:53:00;63.60;54.20;33.60
55449;PMS5003;41318;58.724;50.180;2023-02-26T05:55:31;66.60;49.60;33.40
55449;PMS5003;41318;58.724;50.180;2023-02-26T05:58:02;31.80;31.80;26.80
55449;PMS5003;41318;58.724;50.180;2023-02-26T06:00:33;42.60;42.00;27.40
55449;PMS5003;41318;58.724;50.180;2023-02-26T06:03:04;44.00;41.80;22.60
55449;PMS5003;41318;58.724;50.180;2023-02-26T06:05:35;63.80;50.80;28.40
55449;PMS5003;41318;58.724;50.180;2023-02-26T06:08:07;45.00;42.40;24.60
55449;PMS5003;41318;58.724;50.180;2023-02-26T06:10:38;51.80;44.20;25.80
55449;PMS5003;41318;58.724;50.180;2023-02-26T06:13:09;60.80;49.60;28.80
55449;PMS5003;41318;58.724;50.180;2023-02-26T06:15:59;47.20;44.00;27.80
55449;PMS5003;41318;58.724;50.180;2023-02-26T06:18:30;63.50;50.25;29.50
55449;PMS5003;41318;58.724;50.180;2023-02-26T06:21:02;49.00;41.40;25.60
55449;PMS5003;41318;58.724;50.180;2023-02-26T06:23:33;59.60;46.80;28.20
55449;PMS5003;41318;58.724;50.180;2023-02-26T06:26:04;48.75;43.50;22.00
55449;PMS5003;41318;58.724;50.180;2023-02-26T06:28:53;38.60;37.60;18.80
55449;PMS5003;41318;58.724;50.180;2023-02-26T06:31:25;64.20;45.80;26.60
55449;PMS5003;41318;58.724;50.180;2023-02-26T06:33:56;41.40;39.60;24.60
55449;PMS5003;41318;58.724;50.180;2023-02-26T06:36:27;55.80;43.80;24.60
55449;PMS5003;41318;58.724;50.180;2023-02-26T06:38:58;45.80;44.00;26.40
55449;PMS5003;41318;58.724;50.180;2023-02-26T06:41:29;40.25;38.50;21.75
55449;PMS5003;41318;58.724;50.180;2023-02-26T06:44:00;35.60;33.60;20.60
55449;PMS5003;41318;58.724;50.180;2023-02-26T06:46:31;46.60;37.60;15.80
55449;PMS5003;41318;58.724;50.180;2023-02-26T06:49:03;48.00;43.40;27.20
55449;PMS5003;41318;58.724;50.180;2023-02-26T06:51:52;54.80;43.60;24.80
55449;PMS5003;41318;58.724;50.180;2023-02-26T06:54:23;63.25;52.75;30.75
55449;PMS5003;41318;58.724;50.180;2023-02-26T06:56:54;41.75;40.00;22.00
55449;PMS5003;41318;58.724;50.180;2023-02-26T06:59:27;52.80;44.60;26.20
55449;PMS5003;41318;58.724;50.180;2023-02-26T07:01:59;49.00;41.40;25.00
55449;PMS5003;41318;58.724;50.180;2023-02-26T07:04:30;47.00;41.80;26.00
55449;PMS5003;41318;58.724;50.180;2023-02-26T07:07:01;59.50;50.50;30.25
55449;PMS5003;41318;58.724;50.180;2023-02-26T07:09:32;51.40;45.20;27.20
55449;PMS5003;41318;58.724;50.180;2023-02-26T07:12:03;49.20;43.80;24.80
55449;PMS5003;41318;58.724;50.180;2023-02-26T07:14:38;40.40;39.00;22.60
55449;PMS5003;41318;58.724;50.180;2023-02-26T07:17:28;40.60;40.40;25.40
55449;PMS5003;41318;58.724;50.180;2023-02-26T07:19:59;45.25;40.75;19.50
55449;PMS5003;41318;58.724;50.180;2023-02-26T07:22:36;45.60;44.00;25.80
55449;PMS5003;41318;58.724;50.180;2023-02-26T07:25:08;39.60;36.00;23.80
55449;PMS5003;41318;58.724;50.180;2023-02-26T07:27:39;46.80;43.40;27.00
55449;PMS5003;41318;58.724;50.180;2023-02-26T07:30:11;48.60;44.40;26.40
55449;PMS5003;41318;58.724;50.180;2023-02-26T07:32:43;40.80;39.60;21.00
55449;PMS5003;41318;58.724;50.180;2023-02-26T07:35:14;55.00;47.40;30.40
55449;PMS5003;41318;58.724;50.180;2023-02-26T07:37:45;44.80;41.20;27.00
55449;PMS5003;41318;58.724;50.180;2023-02-26T07:40:17;52.60;47.20;30.40
55449;PMS5003;41318;58.724;50.180;2023-02-26T07:42:48;55.80;45.40;29.60
55449;PMS5003;41318;58.724;50.180;2023-02-26T07:45:20;49.80;43.20;27.00
55449;PMS5003;41318;58.724;50.180;2023-02-26T07:47:52;50.20;44.20;27.40
55449;PMS5003;41318;58.724;50.180;2023-02-26T07:50:23;45.60;43.00;27.00
55449;PMS5003;41318;58.724;50.180;2023-02-26T07:52:55;46.80;40.40;24.00
55449;PMS5003;41318;58.724;50.180;2023-02-26T07:55:26;80.00;64.60;38.00
55449;PMS5003;41318;58.724;50.180;2023-02-26T07:57:58;48.60;44.00;28.20
55449;PMS5003;41318;58.724;50.180;2023-02-26T08:00:29;64.00;51.00;31.80
55449;PMS5003;41318;58.724;50.180;2023-02-26T08:03:00;62.40;53.60;35.80
55449;PMS5003;41318;58.724;50.180;2023-02-26T08:05:31;63.20;50.20;30.20
55449;PMS5003;41318;58.724;50.180;2023-02-26T08:08:03;55.80;46.80;29.80
55449;PMS5003;41318;58.724;50.180;2023-02-26T08:10:33;43.50;42.00;27.00
55449;PMS5003;41318;58.724;50.180;2023-02-26T08:13:04;44.40;38.40;22.60
55449;PMS5003;41318;58.724;50.180;2023-02-26T08:15:36;34.00;34.00;22.60
55449;PMS5003;41318;58.724;50.180;2023-02-26T08:18:07;47.60;43.40;30.00
55449;PMS5003;41318;58.724;50.180;2023-02-26T08:20:39;27.60;27.20;22.40
55449;PMS5003;41318;58.724;50.180;2023-02-26T08:23:10;36.75;35.00;21.25
55449;PMS5003;41318;58.724;50.180;2023-02-26T08:25:41;31.80;31.00;19.60
55449;PMS5003;41318;58.724;50.180;2023-02-26T08:28:12;26.00;23.60;13.00
55449;PMS5003;41318;58.724;50.180;2023-02-26T08:30:43;24.00;23.60;14.80
55449;PMS5003;41318;58.724;50.180;2023-02-26T08:33:14;27.00;21.40;16.40
55449;PMS5003;41318;58.724;50.180;2023-02-26T08:35:45;23.80;23.80;12.80
55449;PMS5003;41318;58.724;50.180;2023-02-26T08:38:17;21.40;20.20;13.00
55449;PMS5003;41318;58.724;50.180;2023-02-26T08:40:48;24.80;23.00;16.60
55449;PMS5003;41318;58.724;50.180;2023-02-26T08:43:19;27.60;27.20;16.60
55449;PMS5003;41318;58.724;50.180;2023-02-26T08:45:51;23.60;22.80;14.60
55449;PMS5003;41318;58.724;50.180;2023-02-26T08:48:23;22.80;21.20;12.20
55449;PMS5003;41318;58.724;50.180;2023-02-26T08:50:54;18.20;18.20;10.00
55449;PMS5003;41318;58.724;50.180;2023-02-26T08:53:44;33.00;33.00;21.00
55449;PMS5003;41318;58.724;50.180;2023-02-26T08:56:17;32.60;32.60;20.00
55449;PMS5003;41318;58.724;50.180;2023-02-26T08:58:48;35.60;34.60;21.20
55449;PMS5003;41318;58.724;50.180;2023-02-26T09:01:20;37.60;35.60;20.00
55449;PMS5003;41318;58.724;50.180;2023-02-26T09:03:51;27.60;27.40;16.60
55449;PMS5003;41318;58.724;50.180;2023-02-26T09:06:22;37.20;36.40;22.60
55449;PMS5003;41318;58.724;50.180;2023-02-26T09:08:53;36.40;35.60;24.80
55449;PMS5003;41318;58.724;50.180;2023-02-26T09:11:24;34.20;33.20;23.40
55449;PMS5003;41318;58.724;50.180;2023-02-26T09:13:56;35.20;34.80;22.20
55449;PMS5003;41318;58.724;50.180;2023-02-26T09:16:29;22.20;22.20;9.40
55449;PMS5003;41318;58.724;50.180;2023-02-26T09:19:00;33.40;32.80;18.40
55449;PMS5003;41318;58.724;50.180;2023-02-26T09:21:32;37.80;36.60;25.00
55449;PMS5003;41318;58.724;50.180;2023-02-26T09:24:03;54.40;44.20;28.80
55449;PMS5003;41318;58.724;50.180;2023-02-26T09:26:53;21.80;21.80;13.80
55449;PMS5003;41318;58.724;50.180;2023-02-26T09:29:24;23.60;23.60;13.00
55449;PMS5003;41318;58.724;50.180;2023-02-26T09:31:55;32.80;32.60;22.20
55449;PMS5003;41318;58.724;50.180;2023-02-26T09:34:26;25.00;24.20;16.60
55449;PMS5003;41318;58.724;50.180;2023-02-26T09:36:57;45.40;42.40;27.60
55449;PMS5003;41318;58.724;50.180;2023-02-26T09:39:47;42.80;39.60;23.20
55449;PMS5003;41318;58.724;50.180;2023-02-26T09:42:39;28.00;26.50;14.50
55449;PMS5003;41318;58.724;50.180;2023-02-26T09:45:24;26.80;26.80;16.20
55449;PMS5003;41318;58.724;50.180;2023-02-26T09:47:56;39.00;37.20;20.60
55449;PMS5003;41318;58.724;50.180;2023-02-26T09:50:50;24.20;23.40;13.40
55449;PMS5003;41318;58.724;50.180;2023-02-26T09:53:30;19.40;19.40;11.20
55449;PMS5003;41318;58.724;50.180;2023-02-26T09:56:22;19.20;19.20;13.00
55449;PMS5003;41318;58.724;50.180;2023-02-26T09:58:54;28.60;27.60;20.60
55449;PMS5003;41318;58.724;50.180;2023-02-26T10:01:28;22.20;22.20;14.20
55449;PMS5003;41318;58.724;50.180;2023-02-26T10:06:53;19.20;19.20;15.00
55449;PMS5003;41318;58.724;50.180;2023-02-26T10:09:32;18.80;17.80;14.20
55449;PMS5003;41318;58.724;50.180;2023-02-26T10:12:11;23.00;22.00;13.00
55449;PMS5003;41318;58.724;50.180;2023-02-26T10:17:22;22.00;21.60;14.00
55449;PMS5003;41318;58.724;50.180;2023-02-26T10:19:57;22.80;22.80;15.80
55449;PMS5003;41318;58.724;50.180;2023-02-26T10:22:39;26.40;25.40;16.60
55449;PMS5003;41318;58.724;50.180;2023-02-26T10:30:21;29.40;29.40;20.40
55449;PMS5003;41318;58.724;50.180;2023-02-26T10:35:51;52.60;44.60;29.40
55449;PMS5003;41318;58.724;50.180;2023-02-26T10:38:24;50.20;45.00;30.00
55449;PMS5003;41318;58.724;50.180;2023-02-26T10:41:01;48.20;43.80;31.40
55449;PMS5003;41318;58.724;50.180;2023-02-26T10:51:56;40.40;37.00;22.80
55449;PMS5003;41318;58.724;50.180;2023-02-26T10:54:34;44.00;42.00;28.20
55449;PMS5003;41318;58.724;50.180;2023-02-26T10:57:09;30.60;29.80;19.00
55449;PMS5003;41318;58.724;50.180;2023-02-26T10:59:46;27.00;27.00;18.80
55449;PMS5003;41318;58.724;50.180;2023-02-26T11:02:28;34.20;33.40;23.00
55449;PMS5003;41318;58.724;50.180;2023-02-26T11:05:04;39.80;38.40;25.20
55449;PMS5003;41318;58.724;50.180;2023-02-26T11:07:35;34.20;33.40;22.60
55449;PMS5003;41318;58.724;50.180;2023-02-26T11:10:27;55.60;48.00;32.80
55449;PMS5003;41318;58.724;50.180;2023-02-26T11:13:01;41.40;38.60;23.00
55449;PMS5003;41318;58.724;50.180;2023-02-26T11:15:33;23.20;23.00;18.00
55449;PMS5003;41318;58.724;50.180;2023-02-26T11:18:05;41.00;37.00;26.20
55449;PMS5003;41318;58.724;50.180;2023-02-26T11:20:42;33.00;31.80;18.20
55449;PMS5003;41318;58.724;50.180;2023-02-26T11:23:19;21.40;21.00;14.00
55449;PMS5003;41318;58.724;50.180;2023-02-26T11:26:13;20.20;20.20;13.20
55449;PMS5003;41318;58.724;50.180;2023-02-26T11:28:48;10.20;10.20;6.00
55449;PMS5003;41318;58.724;50.180;2023-02-26T11:31:20;20.60;18.40;14.00
55449;PMS5003;41318;58.724;50.180;2023-02-26T11:33:53;25.20;22.40;13.80
55449;PMS5003;41318;58.724;50.180;2023-02-26T11:36:29;21.80;21.80;12.40
55449;PMS5003;41318;58.724;50.180;2023-02-26T11:39:06;30.60;29.60;17.00
55449;PMS5003;41318;58.724;50.180;2023-02-26T11:41:38;18.00;17.40;10.40
55449;PMS5003;41318;58.724;50.180;2023-02-26T11:44:33;28.60;26.40;18.80
55449;PMS5003;41318;58.724;50.180;2023-02-26T11:47:15;24.40;24.40;16.80
55449;PMS5003;41318;58.724;50.180;2023-02-26T11:49:49;31.40;31.20;19.60
55449;PMS5003;41318;58.724;50.180;2023-02-26T11:52:26;35.00;34.40;23.40
55449;PMS5003;41318;58.724;50.180;2023-02-26T11:55:26;31.20;31.00;26.20
55449;PMS5003;41318;58.724;50.180;2023-02-26T11:57:58;33.60;33.40;24.40
55449;PMS5003;41318;58.724;50.180;2023-02-26T12:00:30;37.80;37.00;23.20
55449;PMS5003;41318;58.724;50.180;2023-02-26T12:03:03;37.40;37.20;26.20
55449;PMS5003;41318;58.724;50.180;2023-02-26T12:05:34;31.40;30.60;22.00
55449;PMS5003;41318;58.724;50.180;2023-02-26T12:08:20;21.60;21.60;13.80
55449;PMS5003;41318;58.724;50.180;2023-02-26T12:10:59;21.40;21.20;13.00
55449;PMS5003;41318;58.724;50.180;2023-02-26T12:17:05;27.80;27.80;19.60
55449;PMS5003;41318;58.724;50.180;2023-02-26T12:33:25;25.80;25.80;17.80
55449;PMS5003;41318;58.724;50.180;2023-02-26T12:41:26;33.40;33.00;21.20
55449;PMS5003;41318;58.724;50.180;2023-02-26T12:49:49;33.80;29.80;17.40
55449;PMS5003;41318;58.724;50.180;2023-02-26T12:52:32;52.00;47.00;28.80
55449;PMS5003;41318;58.724;50.180;2023-02-26T13:12:06;52.00;44.80;29.20
55449;PMS5003;41318;58.724;50.180;2023-02-26T13:18:01;66.80;56.40;35.00
55449;PMS5003;41318;58.724;50.180;2023-02-26T13:20:34;63.60;52.80;31.80
55449;PMS5003;41318;58.724;50.180;2023-02-26T13:23:12;50.60;45.00;28.20
55449;PMS5003;41318;58.724;50.180;2023-02-26T13:25:50;55.40;46.80;30.40
55449;PMS5003;41318;58.724;50.180;2023-02-26T13:34:01;48.20;43.40;28.60
55449;PMS5003;41318;58.724;50.180;2023-02-26T13:36:34;48.60;40.60;26.40
55449;PMS5003;41318;58.724;50.180;2023-02-26T14:01:48;50.80;46.40;29.60
55449;PMS5003;41318;58.724;50.180;2023-02-26T14:07:13;32.60;32.00;20.00
55449;PMS5003;41318;58.724;50.180;2023-02-26T14:09:46;36.20;35.60;26.80
55449;PMS5003;41318;58.724;50.180;2023-02-26T14:17:50;47.60;42.80;27.00
55449;PMS5003;41318;58.724;50.180;2023-02-26T14:20:24;44.40;41.00;28.80
55449;PMS5003;41318;58.724;50.180;2023-02-26T14:31:06;43.00;41.80;29.00
55449;PMS5003;41318;58.724;50.180;2023-02-26T14:33:44;58.00;50.80;32.80
55449;PMS5003;41318;58.724;50.180;2023-02-26T14:36:17;39.80;39.40;26.40
55449;PMS5003;41318;58.724;50.180;2023-02-26T14:38:48;38.20;37.80;26.20
55449;PMS5003;41318;58.724;50.180;2023-02-26T14:41:39;47.20;44.00;29.60
55449;PMS5003;41318;58.724;50.180;2023-02-26T14:44:14;34.20;34.00;25.00
55449;PMS5003;41318;58.724;50.180;2023-02-26T14:46:49;38.80;38.60;25.00
55449;PMS5003;41318;58.724;50.180;2023-02-26T14:49:26;41.80;41.00;26.60
55449;PMS5003;41318;58.724;50.180;2023-02-26T14:52:03;27.40;26.40;16.60
55449;PMS5003;41318;58.724;50.180;2023-02-26T14:54:44;45.80;41.80;27.80
55449;PMS5003;41318;58.724;50.180;2023-02-26T15:24:33;32.00;32.00;23.60
55449;PMS5003;41318;58.724;50.180;2023-02-26T15:27:05;24.40;24.40;17.00
55449;PMS5003;41318;58.724;50.180;2023-02-26T15:29:39;21.00;21.00;16.00
55449;PMS5003;41318;58.724;50.180;2023-02-26T15:32:17;17.40;17.40;12.00
55449;PMS5003;41318;58.724;50.180;2023-02-26T15:37:46;24.20;23.40;16.40
55449;PMS5003;41318;58.724;50.180;2023-02-26T15:40:20;14.80;14.80;10.00
55449;PMS5003;41318;58.724;50.180;2023-02-26T15:42:52;23.00;22.20;15.40
55449;PMS5003;41318;58.724;50.180;2023-02-26T15:45:44;20.00;20.00;13.60
55449;PMS5003;41318;58.724;50.180;2023-02-26T15:48:35;16.00;14.60;12.00
55449;PMS5003;41318;58.724;50.180;2023-02-26T15:51:09;15.20;15.20;10.00
55449;PMS5003;41318;58.724;50.180;2023-02-26T15:53:43;16.60;16.60;10.00
55449;PMS5003;41318;58.724;50.180;2023-02-26T15:56:25;23.20;22.20;13.60
55449;PMS5003;41318;58.724;50.180;2023-02-26T15:59:00;20.20;20.20;13.60
55449;PMS5003;41318;58.724;50.180;2023-02-26T16:01:32;12.00;12.00;8.00
55449;PMS5003;41318;58.724;50.180;2023-02-26T16:04:05;15.00;15.00;10.40
55449;PMS5003;41318;58.724;50.180;2023-02-26T16:06:48;19.00;17.40;12.00
55449;PMS5003;41318;58.724;50.180;2023-02-26T16:09:24;18.20;17.40;10.40
55449;PMS5003;41318;58.724;50.180;2023-02-26T16:11:57;10.00;10.00;7.20
55449;PMS5003;41318;58.724;50.180;2023-02-26T16:14:31;15.60;13.40;5.00
55449;PMS5003;41318;58.724;50.180;2023-02-26T16:17:05;20.20;18.60;9.00
55449;PMS5003;41318;58.724;50.180;2023-02-26T16:25:06;23.20;21.60;16.40
55449;PMS5003;41318;58.724;50.180;2023-02-26T16:27:38;21.20;20.20;13.40
55449;PMS5003;41318;58.724;50.180;2023-02-26T16:30:13;16.00;14.20;12.00
55449;PMS5003;41318;58.724;50.180;2023-02-26T16:32:49;13.80;13.80;8.60
55449;PMS5003;41318;58.724;50.180;2023-02-26T16:36:04;14.40;14.20;10.00
55449;PMS5003;41318;58.724;50.180;2023-02-26T16:38:42;20.20;20.20;13.00
55449;PMS5003;41318;58.724;50.180;2023-02-26T16:41:14;16.00;12.80;7.20
55449;PMS5003;41318;58.724;50.180;2023-02-26T16:43:50;18.20;17.40;12.00
55449;PMS5003;41318;58.724;50.180;2023-02-26T16:46:41;18.20;17.40;10.20
55449;PMS5003;41318;58.724;50.180;2023-02-26T16:51:45;17.00;17.00;13.80
55449;PMS5003;41318;58.724;50.180;2023-02-26T16:54:22;12.80;12.40;9.60
55449;PMS5003;41318;58.724;50.180;2023-02-26T16:56:57;13.20;13.20;11.40
55449;PMS5003;41318;58.724;50.180;2023-02-26T16:59:30;12.80;12.00;9.40
55449;PMS5003;41318;58.724;50.180;2023-02-26T17:02:22;13.00;13.00;10.40
55449;PMS5003;41318;58.724;50.180;2023-02-26T17:05:00;5.20;5.20;4.80
55449;PMS5003;41318;58.724;50.180;2023-02-26T17:07:34;5.80;5.80;4.20
55449;PMS5003;41318;58.724;50.180;2023-02-26T17:10:17;8.00;8.00;6.00
55449;PMS5003;41318;58.724;50.180;2023-02-26T17:12:51;8.00;8.00;5.00
55449;PMS5003;41318;58.724;50.180;2023-02-26T17:15:28;13.00;13.00;9.20
55449;PMS5003;41318;58.724;50.180;2023-02-26T17:17:59;34.80;32.60;19.60
55449;PMS5003;41318;58.724;50.180;2023-02-26T17:20:31;7.20;7.20;5.00
55449;PMS5003;41318;58.724;50.180;2023-02-26T17:23:04;6.40;6.40;4.80
55449;PMS5003;41318;58.724;50.180;2023-02-26T17:25:37;4.00;4.00;2.00
55449;PMS5003;41318;58.724;50.180;2023-02-26T17:28:21;6.00;6.00;4.60
55449;PMS5003;41318;58.724;50.180;2023-02-26T17:30:59;7.80;7.80;5.80
55449;PMS5003;41318;58.724;50.180;2023-02-26T17:33:31;7.40;7.40;5.80
55449;PMS5003;41318;58.724;50.180;2023-02-26T17:36:20;2.00;2.00;1.20
55449;PMS5003;41318;58.724;50.180;2023-02-26T17:38:52;5.60;5.60;4.40
55449;PMS5003;41318;58.724;50.180;2023-02-26T17:41:23;7.20;7.20;4.80
55449;PMS5003;41318;58.724;50.180;2023-02-26T17:43:55;11.80;11.80;9.00
55449;PMS5003;41318;58.724;50.180;2023-02-26T17:46:26;12.40;12.40;9.00
55449;PMS5003;41318;58.724;50.180;2023-02-26T17:48:59;5.40;5.40;4.40
55449;PMS5003;41318;58.724;50.180;2023-02-26T17:51:31;5.00;5.00;3.40
55449;PMS5003;41318;58.724;50.180;2023-02-26T17:54:02;5.60;5.60;4.00
55449;PMS5003;41318;58.724;50.180;2023-02-26T17:56:51;3.40;3.40;2.00
55449;PMS5003;41318;58.724;50.180;2023-02-26T17:59:23;1.40;1.40;0.80